Time;durP1;ratioP1;P1;durP2;ratioP2;P2;SDS_P1;SDS_P2;PMS_P1;PMS_P2;Temp;Humidity;BMP_temperature;BMP_pressure;BME280_temperature;BME280_humidity;BME280_pressure;Samples;Min_cycle;Max_cycle;Signal;HPM_P1;HPM_P2
2023/06/22 00:00:37;;;;;;;6.30;4.60;;;;;;;;;;4990683;28;20317;-86
2023/06/22 00:03:05;;;;;;;1.90;1.80;;;;;;;;;;4991195;28;20243;-86
2023/06/22 00:05:36;;;;;;;4.93;4.53;;;;;;;;;;4991134;28;20226;-86
2023/06/22 00:08:05;;;;;;;3.23;3.03;;;;;;;;;;4990543;28;20260;-84
2023/06/22 00:10:34;;;;;;;2.67;2.53;;;;;;;;;;4990234;28;20210;-84
2023/06/22 00:13:02;;;;;;;1.10;1.10;;;;;;;;;;4990412;28;20206;-84
2023/06/22 00:15:31;;;;;;;4.57;1.60;;;;;;;;;;4990051;28;20216;-84
2023/06/22 00:17:59;;;;;;;2.57;2.47;;;;;;;;;;4990366;28;20213;-84
2023/06/22 00:20:29;;;;;;;8.47;5.03;;;;;;;;;;4990331;28;20236;-84
2023/06/22 00:23:01;;;;;;;2.53;1.40;;;;;;;;;;4990130;28;20259;-84
2023/06/22 00:25:29;;;;;;;5.63;5.07;;;;;;;;;;4990417;28;20200;-84
2023/06/22 00:27:58;;;;;;;2.90;2.70;;;;;;;;;;4990163;28;20239;-84
2023/06/22 00:30:26;;;;;;;4.10;3.70;;;;;;;;;;4989800;28;20200;-84
2023/06/22 00:32:55;;;;;;;2.60;1.40;;;;;;;;;;4989930;28;20206;-84
2023/06/22 00:35:28;;;;;;;2.70;2.50;;;;;;;;;;4990162;28;20220;-84
2023/06/22 00:38:00;;;;;;;6.37;5.87;;;;;;;;;;4989919;28;20207;-83
2023/06/22 00:40:30;;;;;;;1.37;1.30;;;;;;;;;;4989599;28;20227;-84
2023/06/22 00:42:59;;;;;;;1.27;1.27;;;;;;;;;;4989739;28;20204;-83
2023/06/22 00:45:28;;;;;;;2.83;2.37;;;;;;;;;;4990111;28;20228;-84
2023/06/22 00:47:57;;;;;;;1.13;1.13;;;;;;;;;;4989554;28;20327;-83
2023/06/22 00:50:27;;;;;;;4.93;2.70;;;;;;;;;;4989747;28;20208;-84
2023/06/22 00:52:58;;;;;;;2.73;2.63;;;;;;;;;;4989666;28;20211;-83
2023/06/22 00:55:27;;;;;;;4.43;3.53;;;;;;;;;;4990078;28;20227;-84
2023/06/22 00:57:57;;;;;;;3.17;3.00;;;;;;;;;;4990003;28;20205;-83
2023/06/22 01:00:26;;;;;;;1.33;1.23;;;;;;;;;;4989634;28;20200;-84
2023/06/22 01:02:55;;;;;;;2.23;2.13;;;;;;;;;;4990240;28;20223;-86
2023/06/22 01:05:24;;;;;;;3.03;2.93;;;;;;;;;;4990482;28;20295;-86
2023/06/22 01:07:57;;;;;;;2.00;1.90;;;;;;;;;;4989616;28;20208;-86
2023/06/22 01:10:28;;;;;;;4.93;2.70;;;;;;;;;;4990133;28;20257;-86
2023/06/22 01:13:02;;;;;;;11.47;2.90;;;;;;;;;;4990080;28;20250;-86
2023/06/22 01:15:33;;;;;;;9.40;6.17;;;;;;;;;;4989865;28;20250;-86
2023/06/22 01:18:02;;;;;;;5.97;4.20;;;;;;;;;;4989881;28;20197;-86
2023/06/22 01:20:31;;;;;;;1.23;1.23;;;;;;;;;;4990127;28;20270;-87
2023/06/22 01:23:05;;;;;;;0.47;0.47;;;;;;;;;;4990033;28;20235;-86
2023/06/22 01:25:38;;;;;;;1.23;1.23;;;;;;;;;;4989913;28;20216;-85
2023/06/22 01:28:16;;;;;;;0.40;0.40;;;;;;;;;;4990233;28;20286;-86
2023/06/22 01:30:47;;;;;;;1.90;1.17;;;;;;;;;;4990089;28;20265;-85
2023/06/22 01:33:16;;;;;;;10.30;6.20;;;;;;;;;;4990044;28;20205;-85
2023/06/22 01:35:45;;;;;;;6.97;6.47;;;;;;;;;;4990130;28;20209;-85
2023/06/22 01:38:13;;;;;;;1.03;1.03;;;;;;;;;;4990135;28;20230;-85
2023/06/22 01:40:42;;;;;;;0.93;0.93;;;;;;;;;;4989757;28;20201;-86
2023/06/22 01:43:11;;;;;;;0.40;0.40;;;;;;;;;;4989433;28;20209;-88
2023/06/22 01:45:40;;;;;;;0.47;0.47;;;;;;;;;;4990236;28;20203;-85
2023/06/22 01:48:09;;;;;;;0.40;0.40;;;;;;;;;;4989437;28;20290;-85
2023/06/22 01:50:38;;;;;;;0.40;0.40;;;;;;;;;;4989650;28;20205;-86
2023/06/22 01:53:06;;;;;;;3.37;3.17;;;;;;;;;;4990082;28;20212;-86
2023/06/22 01:55:35;;;;;;;0.40;0.40;;;;;;;;;;4990159;28;20233;-86
2023/06/22 01:58:03;;;;;;;1.27;1.17;;;;;;;;;;4989854;28;20196;-86
2023/06/22 02:00:34;;;;;;;0.90;0.87;;;;;;;;;;4989079;28;20210;-87
2023/06/22 02:03:04;;;;;;;0.40;0.40;;;;;;;;;;4990060;28;20209;-87
2023/06/22 02:05:36;;;;;;;0.40;0.40;;;;;;;;;;4989347;28;20189;-87
2023/06/22 02:08:08;;;;;;;1.23;1.23;;;;;;;;;;4989312;28;20204;-86
2023/06/22 02:10:37;;;;;;;1.00;1.00;;;;;;;;;;4989545;28;20224;-86
2023/06/22 02:13:07;;;;;;;2.03;1.93;;;;;;;;;;4991434;28;20262;-86
2023/06/22 02:15:36;;;;;;;1.37;1.37;;;;;;;;;;4992761;28;20273;-86
2023/06/22 02:18:05;;;;;;;1.57;1.47;;;;;;;;;;4992721;28;20207;-87
2023/06/22 02:20:37;;;;;;;0.47;0.47;;;;;;;;;;4993345;28;20220;-86
2023/06/22 02:23:06;;;;;;;0.70;0.70;;;;;;;;;;4993167;28;20215;-87
2023/06/22 02:25:35;;;;;;;1.37;1.37;;;;;;;;;;4992505;28;20300;-86
2023/06/22 02:28:03;;;;;;;1.53;1.43;;;;;;;;;;4992922;28;20236;-86
2023/06/22 02:30:32;;;;;;;1.90;1.80;;;;;;;;;;4992310;28;20221;-86
2023/06/22 02:33:00;;;;;;;0.80;0.80;;;;;;;;;;4992378;28;20206;-86
2023/06/22 02:35:31;;;;;;;1.73;1.63;;;;;;;;;;4992402;28;20285;-86
2023/06/22 02:38:01;;;;;;;1.13;1.13;;;;;;;;;;4993165;28;20215;-86
2023/06/22 02:40:30;;;;;;;3.30;2.23;;;;;;;;;;4992327;28;20209;-86
2023/06/22 02:43:02;;;;;;;1.80;1.70;;;;;;;;;;4992220;28;20208;-86
2023/06/22 02:45:31;;;;;;;2.43;1.03;;;;;;;;;;4992587;28;20269;-86
2023/06/22 02:47:59;;;;;;;3.63;3.27;;;;;;;;;;4992500;28;20276;-86
2023/06/22 02:50:28;;;;;;;0.40;0.40;;;;;;;;;;4991587;28;20208;-84
2023/06/22 02:52:58;;;;;;;0.50;0.50;;;;;;;;;;4991929;28;20296;-84
2023/06/22 02:55:27;;;;;;;3.43;2.87;;;;;;;;;;4991515;28;20207;-84
2023/06/22 02:57:59;;;;;;;0.63;0.63;;;;;;;;;;4991421;28;20212;-84
2023/06/22 03:00:30;;;;;;;2.03;1.93;;;;;;;;;;4990967;28;20295;-84
2023/06/22 03:02:59;;;;;;;1.00;1.00;;;;;;;;;;4991840;28;20205;-84
2023/06/22 03:05:28;;;;;;;0.77;0.77;;;;;;;;;;4991534;28;20201;-84
2023/06/22 03:07:56;;;;;;;0.87;0.87;;;;;;;;;;4990967;28;20215;-85
2023/06/22 03:10:25;;;;;;;1.00;1.00;;;;;;;;;;4990902;28;20278;-84
2023/06/22 03:12:56;;;;;;;0.73;0.73;;;;;;;;;;4991862;28;20277;-84
2023/06/22 03:15:25;;;;;;;4.53;3.63;;;;;;;;;;4991392;28;20232;-85
2023/06/22 03:17:53;;;;;;;4.47;4.07;;;;;;;;;;4990643;28;20228;-84
2023/06/22 03:20:23;;;;;;;2.40;2.30;;;;;;;;;;4990953;28;20240;-84
2023/06/22 03:22:51;;;;;;;2.90;2.70;;;;;;;;;;4991351;28;20205;-84
2023/06/22 03:25:20;;;;;;;2.17;2.07;;;;;;;;;;4990459;28;20193;-84
2023/06/22 03:27:49;;;;;;;4.37;3.57;;;;;;;;;;4991233;28;20221;-84
2023/06/22 03:30:19;;;;;;;5.93;3.47;;;;;;;;;;4991003;28;20201;-84
2023/06/22 03:32:47;;;;;;;1.53;1.43;;;;;;;;;;4991419;28;20203;-84
2023/06/22 03:35:16;;;;;;;0.53;0.53;;;;;;;;;;4990626;28;20200;-84
2023/06/22 03:37:44;;;;;;;3.70;3.43;;;;;;;;;;4990890;28;20228;-84
2023/06/22 03:40:13;;;;;;;1.13;1.13;;;;;;;;;;4990860;28;20252;-84
2023/06/22 03:42:41;;;;;;;2.30;2.10;;;;;;;;;;4990477;28;20216;-84
2023/06/22 03:45:10;;;;;;;3.50;3.23;;;;;;;;;;4991096;28;20208;-84
2023/06/22 03:47:40;;;;;;;2.20;2.10;;;;;;;;;;4990732;28;20205;-84
2023/06/22 03:50:09;;;;;;;5.33;4.30;;;;;;;;;;4989997;28;20264;-84
2023/06/22 03:52:37;;;;;;;2.70;2.57;;;;;;;;;;4990469;28;20260;-84
2023/06/22 03:55:06;;;;;;;4.23;3.43;;;;;;;;;;4991275;28;20205;-84
2023/06/22 03:57:35;;;;;;;0.63;0.63;;;;;;;;;;4990811;28;20225;-84
2023/06/22 04:00:05;;;;;;;0.90;0.90;;;;;;;;;;4989942;28;20263;-84
2023/06/22 04:02:33;;;;;;;4.17;3.77;;;;;;;;;;4990236;28;20201;-84
2023/06/22 04:05:03;;;;;;;2.60;2.47;;;;;;;;;;4990389;28;20207;-84
2023/06/22 04:07:32;;;;;;;4.70;3.53;;;;;;;;;;4990503;28;20192;-85
2023/06/22 04:10:01;;;;;;;1.93;1.83;;;;;;;;;;4990130;28;20200;-84
2023/06/22 04:12:29;;;;;;;5.60;3.27;;;;;;;;;;4990830;28;20215;-85
2023/06/22 04:14:57;;;;;;;4.83;3.93;;;;;;;;;;4990024;28;20201;-84
2023/06/22 04:17:26;;;;;;;2.57;2.40;;;;;;;;;;4989514;28;20210;-84
2023/06/22 04:19:55;;;;;;;2.57;2.47;;;;;;;;;;4990550;28;20209;-84
2023/06/22 04:22:24;;;;;;;2.23;2.13;;;;;;;;;;4990222;28;20212;-85
2023/06/22 04:24:53;;;;;;;1.23;1.23;;;;;;;;;;4990378;28;20211;-85
2023/06/22 04:27:22;;;;;;;0.80;0.80;;;;;;;;;;4989930;28;20221;-84
2023/06/22 04:29:51;;;;;;;3.67;3.00;;;;;;;;;;4990033;28;20239;-85
2023/06/22 04:32:20;;;;;;;9.17;3.17;;;;;;;;;;4990155;28;20207;-84
2023/06/22 04:34:48;;;;;;;1.77;1.67;;;;;;;;;;4988914;28;20212;-84
2023/06/22 04:37:17;;;;;;;9.00;6.53;;;;;;;;;;4990629;28;20229;-86
2023/06/22 04:39:47;;;;;;;8.57;7.00;;;;;;;;;;4990727;28;20209;-86
2023/06/22 04:42:15;;;;;;;2.03;2.00;;;;;;;;;;4990910;28;20327;-86
2023/06/22 04:44:43;;;;;;;4.63;4.13;;;;;;;;;;4990674;28;20205;-86
2023/06/22 04:47:12;;;;;;;11.53;7.57;;;;;;;;;;4990651;28;20207;-86
2023/06/22 04:49:43;;;;;;;5.83;4.60;;;;;;;;;;4990784;28;20339;-86
2023/06/22 04:52:12;;;;;;;3.40;3.07;;;;;;;;;;4991029;28;20214;-86
2023/06/22 04:54:47;;;;;;;4.33;4.00;;;;;;;;;;4991066;28;20203;-86
2023/06/22 04:57:17;;;;;;;1.30;1.13;;;;;;;;;;4990773;28;20245;-86
2023/06/22 04:59:45;;;;;;;1.50;1.40;;;;;;;;;;4990330;28;20206;-86
2023/06/22 05:02:14;;;;;;;0.67;0.67;;;;;;;;;;4989877;28;20222;-86
2023/06/22 05:04:43;;;;;;;0.83;0.83;;;;;;;;;;4990225;28;20208;-86
2023/06/22 05:07:11;;;;;;;2.10;2.00;;;;;;;;;;4990190;28;20200;-86
2023/06/22 05:09:40;;;;;;;8.33;6.83;;;;;;;;;;4989722;28;20207;-86
2023/06/22 05:12:09;;;;;;;1.23;1.23;;;;;;;;;;4990351;28;20212;-86
2023/06/22 05:14:40;;;;;;;3.17;2.90;;;;;;;;;;4990043;28;20210;-87
2023/06/22 05:17:13;;;;;;;0.30;0.30;;;;;;;;;;4990118;28;20225;-86
2023/06/22 05:19:47;;;;;;;5.63;2.60;;;;;;;;;;4990089;28;20233;-86
2023/06/22 05:22:16;;;;;;;1.13;1.13;;;;;;;;;;4990262;28;20239;-86
2023/06/22 05:24:45;;;;;;;1.57;1.53;;;;;;;;;;4989999;28;20200;-86
2023/06/22 05:27:13;;;;;;;0.70;0.70;;;;;;;;;;4989515;28;20305;-86
2023/06/22 05:29:43;;;;;;;3.00;2.80;;;;;;;;;;4990196;28;20238;-86
2023/06/22 05:32:12;;;;;;;2.93;2.73;;;;;;;;;;4990076;28;20213;-86
2023/06/22 05:34:40;;;;;;;7.90;1.00;;;;;;;;;;4989311;28;20233;-86
2023/06/22 05:37:10;;;;;;;5.07;2.77;;;;;;;;;;4990438;28;20229;-86
2023/06/22 05:39:38;;;;;;;5.00;4.60;;;;;;;;;;4990042;28;20206;-86
2023/06/22 05:42:07;;;;;;;5.33;4.77;;;;;;;;;;4989707;28;20219;-85
2023/06/22 05:44:39;;;;;;;4.27;3.77;;;;;;;;;;4989603;28;20282;-86
2023/06/22 05:47:09;;;;;;;7.50;5.20;;;;;;;;;;4989721;28;20220;-84
2023/06/22 05:49:37;;;;;;;19.43;10.33;;;;;;;;;;4992035;28;20246;-84
2023/06/22 05:52:08;;;;;;;8.27;6.60;;;;;;;;;;4992560;28;20212;-83
2023/06/22 05:54:38;;;;;;;14.50;9.70;;;;;;;;;;4992363;28;20227;-84
2023/06/22 05:57:07;;;;;;;8.90;1.87;;;;;;;;;;4992254;28;20285;-83
2023/06/22 05:59:35;;;;;;;24.13;15.50;;;;;;;;;;4992149;28;20272;-84
2023/06/22 06:02:04;;;;;;;7.87;6.20;;;;;;;;;;4991971;28;20205;-83
2023/06/22 06:04:36;;;;;;;3.33;1.33;;;;;;;;;;4992308;28;20212;-84
2023/06/22 06:07:05;;;;;;;3.13;2.97;;;;;;;;;;4992130;28;20208;-83
2023/06/22 06:09:35;;;;;;;10.53;8.67;;;;;;;;;;4991686;28;20199;-83
2023/06/22 06:12:06;;;;;;;16.63;9.50;;;;;;;;;;4992064;28;20222;-81
2023/06/22 06:14:35;;;;;;;15.53;11.03;;;;;;;;;;4991994;28;20267;-81
2023/06/22 06:17:04;;;;;;;12.53;10.13;;;;;;;;;;4991462;28;20365;-79
2023/06/22 06:19:32;;;;;;;7.40;6.27;;;;;;;;;;4991186;28;20231;-86
2023/06/22 06:22:02;;;;;;;7.13;6.43;;;;;;;;;;4992526;28;20196;-85
2023/06/22 06:24:31;;;;;;;15.20;9.30;;;;;;;;;;4992505;28;20213;-86
2023/06/22 06:26:59;;;;;;;5.97;5.00;;;;;;;;;;4991759;28;20295;-86
2023/06/22 06:29:28;;;;;;;9.07;7.63;;;;;;;;;;4992360;28;20221;-86
2023/06/22 06:31:56;;;;;;;7.03;6.10;;;;;;;;;;4992657;28;20298;-86
2023/06/22 06:34:25;;;;;;;12.40;7.40;;;;;;;;;;4992069;28;20275;-86
2023/06/22 06:36:53;;;;;;;11.47;8.27;;;;;;;;;;4991644;28;20210;-86
2023/06/22 06:39:24;;;;;;;16.37;11.83;;;;;;;;;;4991675;28;20213;-86
2023/06/22 06:41:52;;;;;;;14.63;12.27;;;;;;;;;;4992267;28;20212;-86
2023/06/22 06:44:21;;;;;;;9.43;7.03;;;;;;;;;;4991459;28;20208;-86
2023/06/22 06:46:50;;;;;;;11.77;9.60;;;;;;;;;;4991800;28;20200;-86
2023/06/22 06:49:18;;;;;;;19.07;14.07;;;;;;;;;;4991223;28;20237;-85
2023/06/22 06:51:47;;;;;;;18.37;11.50;;;;;;;;;;4991798;28;20205;-86
2023/06/22 06:54:15;;;;;;;15.43;10.00;;;;;;;;;;4991652;28;20210;-86
2023/06/22 06:56:47;;;;;;;20.60;13.80;;;;;;;;;;4991721;28;20201;-86
2023/06/22 06:59:16;;;;;;;14.40;10.87;;;;;;;;;;4991117;28;20272;-86
2023/06/22 07:01:45;;;;;;;25.87;16.70;;;;;;;;;;4991515;28;20204;-85
2023/06/22 07:04:14;;;;;;;9.67;6.17;;;;;;;;;;4992050;28;20249;-86
2023/06/22 07:06:42;;;;;;;9.83;7.20;;;;;;;;;;4991862;28;20272;-87
2023/06/22 07:09:11;;;;;;;14.53;11.07;;;;;;;;;;4991502;28;20210;-87
2023/06/22 07:11:39;;;;;;;6.83;6.23;;;;;;;;;;4991386;28;20261;-86
2023/06/22 07:14:10;;;;;;;8.27;7.43;;;;;;;;;;4992065;28;20202;-87
2023/06/22 07:16:39;;;;;;;15.37;9.90;;;;;;;;;;4991861;28;20202;-87
2023/06/22 07:19:09;;;;;;;4.67;4.07;;;;;;;;;;4991017;28;20230;-87
2023/06/22 07:21:37;;;;;;;14.27;11.47;;;;;;;;;;4991582;28;20213;-86
2023/06/22 07:24:06;;;;;;;9.80;8.23;;;;;;;;;;4991570;28;20210;-86
2023/06/22 07:26:35;;;;;;;13.67;10.83;;;;;;;;;;4991141;28;20213;-87
2023/06/22 07:29:04;;;;;;;9.23;5.83;;;;;;;;;;4991000;28;20225;-86
2023/06/22 07:31:34;;;;;;;6.23;4.57;;;;;;;;;;4991578;28;20242;-87
2023/06/22 07:34:06;;;;;;;6.33;5.77;;;;;;;;;;4985050;28;20213;-86
2023/06/22 07:36:36;;;;;;;15.40;9.10;;;;;;;;;;4966227;28;20213;-87
2023/06/22 07:39:04;;;;;;;14.97;7.73;;;;;;;;;;4970328;28;20235;-86
2023/06/22 07:41:33;;;;;;;13.47;9.20;;;;;;;;;;4971692;28;20232;-86
2023/06/22 07:44:03;;;;;;;11.33;9.27;;;;;;;;;;4971515;28;20218;-86
2023/06/22 07:46:32;;;;;;;6.93;6.30;;;;;;;;;;4971660;28;20204;-84
2023/06/22 07:49:02;;;;;;;12.47;11.17;;;;;;;;;;4971219;28;20247;-86
2023/06/22 07:51:30;;;;;;;11.73;8.07;;;;;;;;;;4971545;28;20195;-86
2023/06/22 07:53:59;;;;;;;10.27;9.23;;;;;;;;;;4971538;28;20207;-86
2023/06/22 07:56:27;;;;;;;10.53;8.27;;;;;;;;;;4971582;28;20204;-87
2023/06/22 07:58:58;;;;;;;11.63;9.83;;;;;;;;;;4971049;28;20220;-86
2023/06/22 08:01:26;;;;;;;9.30;8.03;;;;;;;;;;4970194;28;20201;-85
2023/06/22 08:03:55;;;;;;;10.70;9.00;;;;;;;;;;4971253;28;20205;-86
2023/06/22 08:06:25;;;;;;;18.53;15.23;;;;;;;;;;4970897;28;20232;-86
2023/06/22 08:08:54;;;;;;;14.00;11.57;;;;;;;;;;4970522;28;20204;-86
2023/06/22 08:11:25;;;;;;;16.33;12.17;;;;;;;;;;4970198;28;20207;-86
2023/06/22 08:13:55;;;;;;;9.40;7.87;;;;;;;;;;4971126;28;20207;-86
2023/06/22 08:16:24;;;;;;;13.43;11.43;;;;;;;;;;4971500;28;20212;-86
2023/06/22 08:18:52;;;;;;;7.40;6.67;;;;;;;;;;4970856;28;20293;-85
2023/06/22 08:21:21;;;;;;;20.93;17.20;;;;;;;;;;4971025;28;20202;-86
2023/06/22 08:23:51;;;;;;;22.73;15.87;;;;;;;;;;4971587;28;20213;-86
2023/06/22 08:26:19;;;;;;;16.97;12.63;;;;;;;;;;4971614;28;20199;-86
2023/06/22 08:28:47;;;;;;;19.47;17.37;;;;;;;;;;4970754;28;20213;-86
2023/06/22 08:31:18;;;;;;;7.60;6.87;;;;;;;;;;4970623;28;20205;-86
2023/06/22 08:33:46;;;;;;;14.53;9.53;;;;;;;;;;4970748;28;20205;-85
2023/06/22 08:36:17;;;;;;;10.30;8.23;;;;;;;;;;4970356;28;20213;-86
2023/06/22 08:38:50;;;;;;;18.03;14.83;;;;;;;;;;4971038;28;20226;-86
2023/06/22 08:41:20;;;;;;;9.73;7.57;;;;;;;;;;4970838;28;20212;-86
2023/06/22 08:43:48;;;;;;;6.13;5.57;;;;;;;;;;4970749;28;20210;-86
2023/06/22 08:46:19;;;;;;;11.07;9.90;;;;;;;;;;4970336;28;20211;-86
2023/06/22 08:48:48;;;;;;;13.93;10.80;;;;;;;;;;4970365;28;20246;-86
2023/06/22 08:51:16;;;;;;;10.37;9.37;;;;;;;;;;4970725;28;20206;-86
2023/06/22 08:53:45;;;;;;;10.13;8.73;;;;;;;;;;4970057;28;20211;-86
2023/06/22 08:56:14;;;;;;;15.40;8.03;;;;;;;;;;4970589;28;20209;-86
2023/06/22 08:58:44;;;;;;;12.60;11.30;;;;;;;;;;4970979;28;20250;-85
2023/06/22 09:01:12;;;;;;;27.80;12.90;;;;;;;;;;4970761;28;20214;-86
2023/06/22 09:03:41;;;;;;;5.43;4.93;;;;;;;;;;4970416;28;20204;-85
2023/06/22 09:06:10;;;;;;;11.70;8.47;;;;;;;;;;4970382;28;20254;-86
2023/06/22 09:08:38;;;;;;;10.20;8.70;;;;;;;;;;4970373;28;20208;-86
2023/06/22 09:11:07;;;;;;;12.40;9.00;;;;;;;;;;4969999;28;20215;-86
2023/06/22 09:13:36;;;;;;;13.80;8.27;;;;;;;;;;4970315;28;20208;-86
2023/06/22 09:16:06;;;;;;;8.63;6.57;;;;;;;;;;4970825;28;20215;-86
2023/06/22 09:18:36;;;;;;;14.73;8.90;;;;;;;;;;4970393;28;20208;-86
2023/06/22 09:21:04;;;;;;;12.63;8.93;;;;;;;;;;4970223;28;20239;-86
2023/06/22 09:23:33;;;;;;;13.73;11.00;;;;;;;;;;4974456;28;20219;-86
2023/06/22 09:26:02;;;;;;;13.13;8.83;;;;;;;;;;4974130;28;20212;-86
2023/06/22 09:28:31;;;;;;;8.53;7.27;;;;;;;;;;4973595;28;20213;-85
2023/06/22 09:30:59;;;;;;;14.67;10.03;;;;;;;;;;4973599;28;20204;-86
2023/06/22 09:33:29;;;;;;;10.13;8.93;;;;;;;;;;4974031;28;20211;-85
2023/06/22 09:35:58;;;;;;;8.63;7.77;;;;;;;;;;4973067;28;20200;-86
2023/06/22 09:38:26;;;;;;;4.43;3.03;;;;;;;;;;4973620;28;20212;-85
2023/06/22 09:40:55;;;;;;;11.83;6.97;;;;;;;;;;4973501;28;20231;-86
2023/06/22 09:43:25;;;;;;;9.73;8.77;;;;;;;;;;4973552;28;20208;-85
2023/06/22 09:45:53;;;;;;;7.77;6.07;;;;;;;;;;4972971;28;20197;-86
2023/06/22 09:48:21;;;;;;;8.83;7.93;;;;;;;;;;4973171;28;20246;-86
2023/06/22 09:50:51;;;;;;;3.90;3.50;;;;;;;;;;4973383;28;20207;-86
2023/06/22 09:53:20;;;;;;;14.53;8.20;;;;;;;;;;4972938;28;20196;-86
2023/06/22 09:55:48;;;;;;;7.67;5.67;;;;;;;;;;4973429;28;20204;-80
2023/06/22 09:58:17;;;;;;;10.47;7.73;;;;;;;;;;4972937;28;20254;-80
2023/06/22 10:00:45;;;;;;;10.27;9.27;;;;;;;;;;4972913;28;20227;-80
2023/06/22 10:03:13;;;;;;;6.03;5.03;;;;;;;;;;4972713;28;20212;-80
2023/06/22 10:05:42;;;;;;;5.13;3.43;;;;;;;;;;4972963;28;20200;-80
2023/06/22 10:08:15;;;;;;;7.63;5.20;;;;;;;;;;4972518;28;20212;-80
2023/06/22 10:10:44;;;;;;;5.73;4.87;;;;;;;;;;4972550;28;20200;-80
2023/06/22 10:13:12;;;;;;;3.23;2.93;;;;;;;;;;4972567;28;20269;-80
2023/06/22 10:15:41;;;;;;;3.13;2.77;;;;;;;;;;4972850;28;20298;-80
2023/06/22 10:18:09;;;;;;;4.63;4.03;;;;;;;;;;4972671;28;20246;-80
2023/06/22 10:20:38;;;;;;;3.90;3.43;;;;;;;;;;4971868;28;20213;-80
2023/06/22 10:23:07;;;;;;;7.57;4.83;;;;;;;;;;4972456;28;20202;-80
2023/06/22 10:25:37;;;;;;;5.70;3.60;;;;;;;;;;4972508;28;20300;-81
2023/06/22 10:28:05;;;;;;;4.20;3.80;;;;;;;;;;4972141;28;20228;-80
2023/06/22 10:30:34;;;;;;;3.33;2.00;;;;;;;;;;4972415;28;20232;-85
2023/06/22 10:33:02;;;;;;;3.83;2.90;;;;;;;;;;4972124;28;20203;-86
2023/06/22 10:35:31;;;;;;;5.63;2.90;;;;;;;;;;4973069;28;20280;-85
2023/06/22 10:38:00;;;;;;;4.63;2.80;;;;;;;;;;4972228;28;20207;-86
2023/06/22 10:40:29;;;;;;;4.50;3.13;;;;;;;;;;4972275;28;20272;-86
2023/06/22 10:42:59;;;;;;;8.90;4.63;;;;;;;;;;4972634;28;20202;-85
2023/06/22 10:45:28;;;;;;;6.23;4.70;;;;;;;;;;4972176;28;20260;-86
2023/06/22 10:47:57;;;;;;;2.27;2.17;;;;;;;;;;4972099;28;20207;-85
2023/06/22 10:50:26;;;;;;;3.57;2.97;;;;;;;;;;4972059;28;20211;-86
2023/06/22 10:52:55;;;;;;;7.73;6.93;;;;;;;;;;4971862;28;20230;-85
2023/06/22 10:55:27;;;;;;;7.13;3.60;;;;;;;;;;4971842;28;20198;-85
2023/06/22 10:58:15;;;;;;;5.83;4.47;;;;;;;;;;4972636;28;20213;-85
2023/06/22 11:00:44;;;;;;;14.00;6.67;;;;;;;;;;4972090;28;20242;-86
2023/06/22 11:03:14;;;;;;;10.43;6.70;;;;;;;;;;4971709;28;20215;-85
2023/06/22 11:05:42;;;;;;;6.97;5.67;;;;;;;;;;4972301;28;20213;-85
2023/06/22 11:08:11;;;;;;;4.43;3.63;;;;;;;;;;4971960;28;20212;-85
2023/06/22 11:10:39;;;;;;;13.73;7.00;;;;;;;;;;4971890;28;20242;-86
2023/06/22 11:13:09;;;;;;;3.90;3.27;;;;;;;;;;4971503;28;20219;-86
2023/06/22 11:15:42;;;;;;;4.90;4.40;;;;;;;;;;4971868;28;20294;-85
2023/06/22 11:18:10;;;;;;;4.83;4.33;;;;;;;;;;4972307;28;20239;-85
2023/06/22 11:20:40;;;;;;;9.00;5.07;;;;;;;;;;4971211;28;20216;-85
2023/06/22 11:23:09;;;;;;;4.40;3.93;;;;;;;;;;4971843;28;20272;-85
2023/06/22 11:25:38;;;;;;;4.33;2.57;;;;;;;;;;4972285;28;20345;-86
2023/06/22 11:28:07;;;;;;;4.60;3.90;;;;;;;;;;4971881;28;20224;-86
2023/06/22 11:30:36;;;;;;;6.57;4.33;;;;;;;;;;4972088;28;20199;-86
2023/06/22 11:33:06;;;;;;;8.50;6.03;;;;;;;;;;4972088;28;20277;-86
2023/06/22 11:35:35;;;;;;;3.57;3.33;;;;;;;;;;4972418;28;20222;-86
2023/06/22 11:38:05;;;;;;;5.13;4.63;;;;;;;;;;4971374;28;20206;-87
2023/06/22 11:40:33;;;;;;;5.93;4.80;;;;;;;;;;4971569;28;20223;-86
2023/06/22 11:43:02;;;;;;;5.13;3.57;;;;;;;;;;4971690;28;20250;-87
2023/06/22 11:45:31;;;;;;;4.30;3.90;;;;;;;;;;4971671;28;20207;-86
2023/06/22 11:47:59;;;;;;;8.03;5.60;;;;;;;;;;4971524;28;20207;-86
2023/06/22 11:50:30;;;;;;;5.27;3.43;;;;;;;;;;4971447;28;20202;-87
2023/06/22 11:52:59;;;;;;;3.87;3.50;;;;;;;;;;4971984;28;20219;-86
2023/06/22 11:55:27;;;;;;;5.60;4.40;;;;;;;;;;4971747;28;20296;-86
2023/06/22 11:57:58;;;;;;;4.00;3.07;;;;;;;;;;4971500;28;20189;-85
2023/06/22 12:00:27;;;;;;;5.10;4.60;;;;;;;;;;4971678;28;20297;-86
2023/06/22 12:02:58;;;;;;;2.77;2.53;;;;;;;;;;4971215;28;20203;-86
2023/06/22 12:05:30;;;;;;;8.53;3.90;;;;;;;;;;4972060;28;20206;-86
2023/06/22 12:07:58;;;;;;;7.00;5.27;;;;;;;;;;4972303;28;20230;-87
2023/06/22 12:10:28;;;;;;;7.27;4.30;;;;;;;;;;4971122;28;20206;-86
2023/06/22 12:12:59;;;;;;;4.47;3.83;;;;;;;;;;4970862;28;20210;-86
2023/06/22 12:15:28;;;;;;;6.13;4.10;;;;;;;;;;4971455;28;20253;-86
2023/06/22 12:17:57;;;;;;;5.97;3.90;;;;;;;;;;4971730;28;20210;-86
2023/06/22 12:20:25;;;;;;;4.83;4.03;;;;;;;;;;4970948;28;20260;-85
2023/06/22 12:22:57;;;;;;;6.50;5.53;;;;;;;;;;4970825;28;20234;-87
2023/06/22 12:25:26;;;;;;;4.90;3.83;;;;;;;;;;4971195;28;20205;-87
2023/06/22 12:27:55;;;;;;;8.13;5.90;;;;;;;;;;4971697;28;20226;-87
2023/06/22 12:30:23;;;;;;;6.03;5.00;;;;;;;;;;4970923;28;20207;-86
2023/06/22 12:32:52;;;;;;;7.70;5.20;;;;;;;;;;4971201;28;20199;-86
2023/06/22 12:35:23;;;;;;;4.90;4.40;;;;;;;;;;4971365;28;20206;-86
2023/06/22 12:37:52;;;;;;;9.70;5.27;;;;;;;;;;4971333;28;20210;-87
2023/06/22 12:40:22;;;;;;;3.40;3.10;;;;;;;;;;4970987;28;20233;-86
2023/06/22 12:42:51;;;;;;;6.20;4.07;;;;;;;;;;4971105;28;20230;-86
2023/06/22 12:45:21;;;;;;;3.77;3.17;;;;;;;;;;4971356;28;20202;-83
2023/06/22 12:47:50;;;;;;;1.90;1.77;;;;;;;;;;4970775;28;20238;-83
2023/06/22 12:50:19;;;;;;;3.33;3.03;;;;;;;;;;4970287;28;20234;-83
2023/06/22 12:52:48;;;;;;;4.60;4.20;;;;;;;;;;4970446;28;20200;-82
2023/06/22 12:55:17;;;;;;;6.17;4.10;;;;;;;;;;4969986;28;20255;-83
2023/06/22 12:57:47;;;;;;;3.70;3.40;;;;;;;;;;4970213;28;20245;-83
2023/06/22 13:00:16;;;;;;;6.07;4.83;;;;;;;;;;4970304;28;20207;-83
2023/06/22 13:02:45;;;;;;;5.57;4.73;;;;;;;;;;4970283;28;20231;-83
2023/06/22 13:05:13;;;;;;;5.53;4.10;;;;;;;;;;4970201;28;20210;-82
2023/06/22 13:07:42;;;;;;;6.40;5.57;;;;;;;;;;4970551;28;20208;-81
2023/06/22 13:10:11;;;;;;;4.63;4.20;;;;;;;;;;4970519;28;20221;-83
2023/06/22 13:12:40;;;;;;;3.93;3.30;;;;;;;;;;4969849;28;20205;-83
2023/06/22 13:15:10;;;;;;;4.83;4.40;;;;;;;;;;4970099;28;20201;-83
2023/06/22 13:17:38;;;;;;;3.97;3.57;;;;;;;;;;4970497;28;20212;-82
2023/06/22 13:20:08;;;;;;;2.33;2.20;;;;;;;;;;4969556;28;20216;-82
2023/06/22 13:22:39;;;;;;;2.30;2.10;;;;;;;;;;4969776;28;20232;-83
2023/06/22 13:25:11;;;;;;;6.03;3.80;;;;;;;;;;4970221;28;20300;-82
2023/06/22 13:27:40;;;;;;;4.57;2.60;;;;;;;;;;4970029;28;20233;-82
2023/06/22 13:30:11;;;;;;;6.23;1.50;;;;;;;;;;4969362;28;20291;-82
2023/06/22 13:32:42;;;;;;;1.87;1.77;;;;;;;;;;4970219;28;20208;-83
2023/06/22 13:35:12;;;;;;;4.67;2.77;;;;;;;;;;4969806;28;20219;-82
2023/06/22 13:37:41;;;;;;;10.13;4.83;;;;;;;;;;4969561;28;20206;-81
2023/06/22 13:40:09;;;;;;;1.87;1.60;;;;;;;;;;4969548;28;20213;-83
2023/06/22 13:42:38;;;;;;;3.63;3.07;;;;;;;;;;4969774;28;20225;-82
2023/06/22 13:45:08;;;;;;;1.80;1.03;;;;;;;;;;4970048;28;20295;-82
2023/06/22 13:47:38;;;;;;;4.53;3.17;;;;;;;;;;4969489;28;20208;-82
2023/06/22 13:50:07;;;;;;;3.83;3.03;;;;;;;;;;4969385;28;20256;-80
2023/06/22 13:52:36;;;;;;;3.27;2.97;;;;;;;;;;4969683;28;20208;-82
2023/06/22 13:55:05;;;;;;;4.37;3.23;;;;;;;;;;4969812;28;20204;-82
2023/06/22 13:57:34;;;;;;;3.73;3.17;;;;;;;;;;4969378;28;20209;-82
2023/06/22 14:00:04;;;;;;;4.73;2.10;;;;;;;;;;4969649;28;20216;-82
2023/06/22 14:02:33;;;;;;;3.53;3.03;;;;;;;;;;4969343;28;20258;-82
2023/06/22 14:05:04;;;;;;;2.20;2.00;;;;;;;;;;4969378;28;20295;-82
2023/06/22 14:07:32;;;;;;;5.03;3.27;;;;;;;;;;4969441;28;20201;-82
2023/06/22 14:10:01;;;;;;;2.30;2.10;;;;;;;;;;4971997;28;20200;-82
2023/06/22 14:12:30;;;;;;;3.03;2.40;;;;;;;;;;4972615;28;20240;-82
2023/06/22 14:14:59;;;;;;;2.43;2.10;;;;;;;;;;4972709;28;20211;-82
2023/06/22 14:17:28;;;;;;;3.27;2.23;;;;;;;;;;4972425;28;20208;-82
2023/06/22 14:19:56;;;;;;;2.97;2.73;;;;;;;;;;4972647;28;20208;-85
2023/06/22 14:22:29;;;;;;;2.87;2.53;;;;;;;;;;4972262;28;20266;-86
2023/06/22 14:24:58;;;;;;;9.63;3.80;;;;;;;;;;4972452;28;20217;-86
2023/06/22 14:27:27;;;;;;;6.87;4.07;;;;;;;;;;4972514;28;20223;-86
2023/06/22 14:29:55;;;;;;;2.27;2.00;;;;;;;;;;4972333;28;20212;-85
2023/06/22 14:32:27;;;;;;;4.20;3.80;;;;;;;;;;4972220;28;20207;-85
2023/06/22 14:34:55;;;;;;;3.00;2.73;;;;;;;;;;4972412;28;20245;-86
2023/06/22 14:37:24;;;;;;;3.23;2.93;;;;;;;;;;4972275;28;20203;-86
2023/06/22 14:39:54;;;;;;;2.50;2.07;;;;;;;;;;4972159;28;20216;-86
2023/06/22 14:42:22;;;;;;;2.53;2.33;;;;;;;;;;4972530;28;20224;-86
2023/06/22 14:44:51;;;;;;;3.73;3.10;;;;;;;;;;4972118;28;20217;-86
2023/06/22 14:47:20;;;;;;;2.17;1.97;;;;;;;;;;4971935;28;20211;-86
2023/06/22 14:49:49;;;;;;;2.17;1.97;;;;;;;;;;4971833;28;20227;-86